Time;durP1;ratioP1;P1;durP2;ratioP2;P2;SDS_P1;SDS_P2;PMS_P1;PMS_P2;Temp;Humidity;BMP_temperature;BMP_pressure;BME280_temperature;BME280_humidity;BME280_pressure;Samples;Min_cycle;Max_cycle;Signal;HPM_P1;HPM_P2
2022/01/25 00:26:48;;;;;;;66.53;36.88;;;4.10;90.20;;;;;;5115788;27;20518;-78
2022/01/25 00:29:27;;;;;;;65.35;35.85;;;4.10;90.20;;;;;;5116084;27;20122;-78
2022/01/25 00:31:53;;;;;;;65.53;38.03;;;4.10;90.30;;;;;;5083781;28;20031;-78
2022/01/25 00:34:19;;;;;;;67.88;37.22;;;4.10;90.20;;;;;;5115444;28;20188;-78
2022/01/25 00:36:44;;;;;;;67.03;36.85;;;4.10;90.00;;;;;;5115343;28;20042;-78
2022/01/25 00:39:10;;;;;;;68.63;36.55;;;4.10;90.10;;;;;;5115860;28;20046;-78
2022/01/25 00:41:36;;;;;;;69.20;37.85;;;4.10;90.10;;;;;;5115550;28;20046;-78
2022/01/25 00:44:02;;;;;;;69.13;38.88;;;4.10;90.40;;;;;;5098419;28;20043;-78
2022/01/25 00:46:29;;;;;;;67.72;37.58;;;4.10;90.40;;;;;;5115369;28;20031;-78
2022/01/25 00:48:59;;;;;;;67.28;37.28;;;4.10;90.40;;;;;;5115601;28;20045;-78
2022/01/25 00:54:01;;;;;;;64.18;34.40;;;4.00;90.50;;;;;;5115639;28;20043;-78
2022/01/25 00:56:30;;;;;;;70.63;38.35;;;4.00;90.60;;;;;;5099323;28;20079;-78
2022/01/25 00:58:56;;;;;;;65.60;37.30;;;4.00;90.70;;;;;;5098362;28;20039;-78
2022/01/25 01:01:23;;;;;;;65.07;36.08;;;4.00;90.70;;;;;;5115201;28;20051;-78
2022/01/25 01:03:48;;;;;;;71.15;38.38;;;4.10;90.50;;;;;;5098113;28;20043;-78
2022/01/25 01:06:15;;;;;;;67.63;36.95;;;4.00;90.70;;;;;;5115147;28;20047;-78
2022/01/25 01:08:41;;;;;;;66.35;37.42;;;4.00;90.80;;;;;;5118348;27;20066;-78
2022/01/25 01:11:12;;;;;;;65.55;37.50;;;4.00;90.80;;;;;;5119226;27;20081;-78
2022/01/25 01:30:23;;;;;;;71.90;37.78;;;4.00;90.60;;;;;;5119148;27;20046;-78
2022/01/25 01:47:44;;;;;;;69.32;38.95;;;4.00;90.50;;;;;;5118451;27;20039;-78
2022/01/25 01:50:15;;;;;;;72.78;38.13;;;4.00;90.40;;;;;;5101863;27;20043;-78
2022/01/25 01:52:42;;;;;;;69.32;37.15;;;4.00;90.50;;;;;;5101759;27;20483;-78
2022/01/25 01:55:08;;;;;;;71.50;38.85;;;4.10;90.40;;;;;;5118362;27;20043;-78
2022/01/25 01:57:34;;;;;;;71.68;38.17;;;4.00;90.40;;;;;;5118546;27;20125;-78
2022/01/25 02:00:01;;;;;;;75.20;40.78;;;4.10;90.40;;;;;;5101332;27;20134;-78
2022/01/25 02:02:26;;;;;;;76.63;38.65;;;4.00;90.50;;;;;;5101403;27;20039;-78
2022/01/25 02:04:52;;;;;;;74.07;38.88;;;4.00;90.40;;;;;;5117993;27;20510;-78
2022/01/25 02:07:18;;;;;;;74.40;38.83;;;3.90;90.40;;;;;;5118043;27;20031;-78
2022/01/25 02:09:44;;;;;;;67.18;37.95;;;4.00;90.40;;;;;;5118140;27;20088;-78
2022/01/25 02:12:09;;;;;;;70.22;39.20;;;4.00;90.40;;;;;;5118001;27;20039;-78
2022/01/25 02:14:36;;;;;;;68.05;37.30;;;4.00;90.50;;;;;;5084478;27;20421;-78
2022/01/25 02:22:52;;;;;;;75.65;38.80;;;4.00;90.50;;;;;;5117637;27;20050;-78
2022/01/25 02:25:18;;;;;;;69.97;39.45;;;4.00;90.50;;;;;;5117763;27;20039;-78
2022/01/25 02:27:44;;;;;;;68.82;37.00;;;4.00;90.70;;;;;;5100778;27;20038;-78
2022/01/25 02:30:13;;;;;;;68.63;37.67;;;4.00;90.60;;;;;;5100944;27;20117;-78
2022/01/25 02:32:39;;;;;;;73.63;39.97;;;4.00;90.50;;;;;;5100970;27;20127;-78
2022/01/25 02:35:06;;;;;;;66.60;36.13;;;4.00;90.60;;;;;;5117885;27;20553;-78
2022/01/25 02:37:32;;;;;;;75.57;39.78;;;3.90;90.70;;;;;;5117796;27;20507;-78
2022/01/25 02:39:58;;;;;;;67.93;37.80;;;4.00;90.50;;;;;;5117516;27;20031;-78
2022/01/25 02:42:25;;;;;;;68.00;39.85;;;4.00;90.50;;;;;;5117444;27;20083;-78
2022/01/25 02:44:50;;;;;;;65.95;38.25;;;4.00;90.50;;;;;;5083731;27;20043;-78
2022/01/25 02:50:02;;;;;;;67.13;36.22;;;4.00;90.50;;;;;;5103269;27;20386;-78
2022/01/25 02:52:28;;;;;;;75.70;39.80;;;3.90;90.60;;;;;;5117290;27;20039;-78
2022/01/25 02:54:54;;;;;;;69.40;37.33;;;3.90;90.70;;;;;;5100305;27;20486;-78
2022/01/25 02:57:23;;;;;;;70.80;38.28;;;3.90;90.70;;;;;;5100129;27;20062;-78
2022/01/25 02:59:49;;;;;;;70.40;37.80;;;3.90;90.90;;;;;;5117131;27;20510;-78
2022/01/25 03:02:16;;;;;;;68.80;36.92;;;3.90;90.90;;;;;;5100348;27;20027;-78
2022/01/25 03:04:42;;;;;;;74.07;39.25;;;4.00;90.90;;;;;;5116663;27;20111;-78
2022/01/25 03:07:08;;;;;;;74.57;40.40;;;3.90;90.80;;;;;;5100123;27;20031;-78
2022/01/25 03:09:35;;;;;;;69.03;38.38;;;4.00;90.80;;;;;;5116956;27;20049;-78
2022/01/25 03:12:03;;;;;;;70.50;38.20;;;4.00;90.80;;;;;;5116728;27;20043;-78
2022/01/25 03:14:32;;;;;;;70.10;37.53;;;4.00;90.90;;;;;;5100528;27;20043;-78
2022/01/25 03:19:50;;;;;;;73.15;39.13;;;4.00;90.90;;;;;;5116974;27;20518;-78
2022/01/25 03:23:04;;;;;;;72.35;38.90;;;4.00;90.70;;;;;;5116276;27;20390;-78
2022/01/25 03:25:00;;;;;;;61.95;36.05;;;4.00;90.80;;;;;;5105622;27;20051;-78
2022/01/25 03:27:25;;;;;;;67.50;37.97;;;4.00;90.80;;;;;;5116676;27;20433;-78
2022/01/25 03:29:51;;;;;;;70.32;38.22;;;4.00;90.80;;;;;;5116581;27;20038;-78
2022/01/25 03:32:17;;;;;;;74.13;40.85;;;4.00;90.90;;;;;;5116461;27;20039;-78
2022/01/25 03:34:43;;;;;;;70.68;37.65;;;4.00;90.90;;;;;;5116383;27;20035;-78
2022/01/25 03:37:08;;;;;;;67.53;37.20;;;3.90;91.00;;;;;;5099382;27;20444;-78
2022/01/25 03:39:34;;;;;;;76.38;39.45;;;4.00;91.00;;;;;;5099425;27;20070;-78
2022/01/25 03:42:00;;;;;;;71.05;39.45;;;4.00;90.90;;;;;;5116208;27;20153;-78
2022/01/25 03:44:25;;;;;;;67.32;37.05;;;4.00;90.90;;;;;;5116136;27;20101;-78
2022/01/25 03:52:03;;;;;;;70.97;38.72;;;4.10;90.90;;;;;;5101482;27;20046;-78
2022/01/25 03:54:28;;;;;;;68.40;36.85;;;4.00;90.80;;;;;;5099314;27;20045;-78
2022/01/25 03:56:54;;;;;;;66.15;36.63;;;4.00;90.90;;;;;;5099302;27;20038;-78
2022/01/25 03:59:20;;;;;;;69.85;37.65;;;4.00;90.90;;;;;;5099092;27;20046;-78
2022/01/25 04:01:45;;;;;;;71.40;37.10;;;4.00;90.90;;;;;;5099159;27;20050;-78
2022/01/25 04:04:15;;;;;;;70.47;41.10;;;4.00;91.00;;;;;;5115550;27;20055;-78
2022/01/25 04:06:46;;;;;;;70.38;37.92;;;4.00;91.00;;;;;;5115580;27;20047;-78
2022/01/25 04:09:12;;;;;;;71.13;39.65;;;4.00;91.00;;;;;;5099116;27;20447;-78
2022/01/25 04:11:38;;;;;;;71.35;37.90;;;4.00;91.00;;;;;;5115787;27;20118;-78
2022/01/25 04:14:04;;;;;;;67.07;39.40;;;4.00;91.00;;;;;;5115815;27;20034;-78
2022/01/25 04:16:58;;;;;;;74.72;39.40;;;3.90;91.00;;;;;;5098788;27;20499;-78
2022/01/25 04:25:01;;;;;;;72.70;39.30;;;4.00;91.00;;;;;;5115650;27;20057;-78
2022/01/25 04:27:28;;;;;;;70.47;39.10;;;4.00;91.00;;;;;;5115639;27;20039;-78
2022/01/25 04:29:53;;;;;;;67.28;36.58;;;4.00;90.90;;;;;;5115565;28;20042;-78
2022/01/25 04:32:31;;;;;;;67.38;36.75;;;4.00;91.00;;;;;;5115324;27;20039;-78
2022/01/25 04:35:10;;;;;;;74.53;38.15;;;4.00;91.10;;;;;;5100287;28;20038;-78
2022/01/25 05:01:37;;;;;;;77.13;38.80;;;4.00;91.30;;;;;;5119556;27;20479;-78
2022/01/25 05:04:07;;;;;;;63.70;34.28;;;4.00;91.40;;;;;;5102173;27;20051;-78
2022/01/25 05:06:34;;;;;;;71.95;39.13;;;4.00;91.40;;;;;;5119419;27;20035;-78
2022/01/25 05:09:12;;;;;;;73.00;39.08;;;4.00;91.30;;;;;;5119082;27;20046;-78
2022/01/25 05:11:43;;;;;;;67.20;36.83;;;4.00;91.40;;;;;;5119480;27;20050;-78
2022/01/25 05:14:15;;;;;;;64.32;37.08;;;4.00;91.30;;;;;;5119570;27;20082;-78
2022/01/25 05:24:24;;;;;;;;;;;4.00;91.20;;;;;;5104931;27;20050;-78
2022/01/25 05:26:50;;;;;;;68.47;36.17;;;4.00;91.30;;;;;;5101870;27;20014;-78
2022/01/25 05:29:18;;;;;;;72.15;37.50;;;3.90;91.40;;;;;;5119164;27;20053;-78
2022/01/25 05:31:44;;;;;;;69.47;36.63;;;3.90;91.40;;;;;;5119155;27;20031;-78
2022/01/25 05:34:10;;;;;;;68.93;36.70;;;3.90;91.30;;;;;;5118774;27;20039;-78
2022/01/25 05:36:37;;;;;;;74.22;37.53;;;3.90;91.50;;;;;;5118717;27;20046;-78
2022/01/25 05:39:18;;;;;;;69.47;36.80;;;3.90;91.40;;;;;;5118821;27;20656;-78
2022/01/25 05:41:53;;;;;;;67.72;35.83;;;3.90;91.40;;;;;;5118981;27;20039;-78
2022/01/25 05:44:26;;;;;;;66.40;36.70;;;3.90;91.30;;;;;;5103035;27;20407;-78
2022/01/25 05:47:03;;;;;;;66.68;38.10;;;3.90;91.40;;;;;;5102791;27;20062;-78
2022/01/25 05:49:29;;;;;;;75.70;39.72;;;3.90;91.70;;;;;;5101596;27;20122;-78
2022/01/25 05:51:55;;;;;;;74.15;38.25;;;3.90;91.50;;;;;;5118298;27;20126;-78
2022/01/25 05:54:20;;;;;;;71.00;38.08;;;3.90;91.70;;;;;;5118400;27;20047;-78
2022/01/25 05:56:46;;;;;;;70.72;37.13;;;3.90;91.70;;;;;;5118251;27;20050;-78
2022/01/25 05:59:12;;;;;;;74.38;38.92;;;3.90;91.70;;;;;;5101600;27;20045;-78
2022/01/25 06:01:37;;;;;;;70.90;38.45;;;3.80;91.70;;;;;;5118291;27;20043;-78
2022/01/25 06:04:03;;;;;;;68.70;38.22;;;3.80;91.70;;;;;;5118100;27;20100;-78
2022/01/25 06:06:29;;;;;;;71.15;38.58;;;3.90;91.70;;;;;;5118147;27;20039;-78
2022/01/25 06:08:56;;;;;;;71.13;38.17;;;3.90;91.70;;;;;;5118138;27;20047;-78
2022/01/25 06:11:22;;;;;;;68.68;37.78;;;3.90;91.80;;;;;;5117888;27;20039;-78
2022/01/25 06:13:48;;;;;;;75.65;39.20;;;3.90;91.70;;;;;;5118055;27;20039;-78
2022/01/25 06:16:14;;;;;;;67.93;37.58;;;3.90;91.60;;;;;;5118387;27;20043;-78
2022/01/25 06:18:40;;;;;;;77.50;42.15;;;3.90;91.60;;;;;;5117940;27;20406;-78
2022/01/25 06:21:06;;;;;;;83.47;43.10;;;3.90;91.90;;;;;;5118126;27;20031;-78
2022/01/25 06:23:31;;;;;;;78.80;43.22;;;3.90;91.70;;;;;;5117766;27;20051;-78
2022/01/25 06:25:57;;;;;;;77.10;41.92;;;3.90;91.60;;;;;;5100720;27;20107;-78
2022/01/25 06:28:23;;;;;;;73.90;39.00;;;3.90;91.80;;;;;;5117637;27;20035;-79
2022/01/25 06:30:48;;;;;;;71.95;38.67;;;3.90;91.80;;;;;;5100761;27;20057;-78
2022/01/25 06:33:14;;;;;;;73.13;37.80;;;3.90;91.70;;;;;;5117609;27;20076;-78
2022/01/25 06:35:40;;;;;;;71.55;37.38;;;3.90;91.80;;;;;;5117699;27;20047;-78
2022/01/25 06:38:06;;;;;;;69.05;37.92;;;3.90;91.80;;;;;;5100359;27;20127;-78
2022/01/25 06:40:32;;;;;;;69.10;37.47;;;3.90;91.90;;;;;;5117532;27;20539;-78
2022/01/25 06:42:57;;;;;;;69.85;38.92;;;4.00;91.90;;;;;;5083798;27;20035;-79
2022/01/25 06:45:24;;;;;;;72.97;37.70;;;4.00;91.80;;;;;;5100483;27;20501;-79
2022/01/25 06:47:51;;;;;;;74.10;39.75;;;4.00;92.00;;;;;;5100605;27;20536;-78
2022/01/25 06:50:19;;;;;;;65.80;36.65;;;3.90;92.10;;;;;;5100532;27;20041;-78
2022/01/25 06:52:45;;;;;;;69.55;37.20;;;4.00;92.00;;;;;;5100605;27;20433;-79
2022/01/25 06:55:14;;;;;;;70.40;39.08;;;4.00;92.10;;;;;;5100265;27;20479;-78
2022/01/25 06:57:41;;;;;;;69.57;37.08;;;4.00;92.20;;;;;;5100109;27;20130;-79
2022/01/25 07:00:16;;;;;;;71.40;38.72;;;4.00;92.00;;;;;;5100234;27;20050;-78
2022/01/25 07:02:42;;;;;;;69.97;38.47;;;4.00;92.20;;;;;;5117447;27;20031;-78
2022/01/25 07:05:08;;;;;;;67.95;38.13;;;3.90;92.10;;;;;;5112847;28;20051;-78
2022/01/25 07:07:35;;;;;;;74.88;39.00;;;4.00;92.00;;;;;;5113472;28;20051;-78
2022/01/25 07:10:01;;;;;;;73.13;39.88;;;4.00;92.10;;;;;;5113545;28;20126;-79
2022/01/25 07:12:26;;;;;;;71.63;39.65;;;3.90;92.20;;;;;;5113199;28;20071;-77
2022/01/25 07:14:52;;;;;;;76.38;39.13;;;4.00;92.10;;;;;;5113576;28;20126;-78
2022/01/25 07:17:18;;;;;;;76.32;38.42;;;4.00;92.30;;;;;;5096413;28;20039;-78
2022/01/25 07:19:43;;;;;;;76.13;38.10;;;4.00;92.40;;;;;;5096706;28;20036;-78
2022/01/25 07:22:09;;;;;;;76.25;40.22;;;4.00;92.40;;;;;;5096721;28;20388;-78
2022/01/25 07:24:35;;;;;;;78.63;41.17;;;4.00;92.50;;;;;;5113156;28;20073;-78
2022/01/25 07:27:01;;;;;;;74.95;40.28;;;3.90;92.30;;;;;;5096414;28;20093;-78
2022/01/25 07:29:27;;;;;;;71.50;38.65;;;4.00;92.20;;;;;;5113216;28;20476;-78
2022/01/25 07:31:53;;;;;;;70.68;38.13;;;4.00;92.30;;;;;;5113172;28;20387;-78
2022/01/25 07:34:19;;;;;;;74.82;39.78;;;4.00;92.30;;;;;;5113091;28;20039;-78
2022/01/25 07:36:45;;;;;;;76.15;39.25;;;4.00;92.30;;;;;;5113296;28;20050;-78
2022/01/25 07:39:11;;;;;;;76.97;40.33;;;4.00;92.60;;;;;;5096251;28;20492;-78
2022/01/25 07:41:38;;;;;;;75.18;39.65;;;3.90;92.70;;;;;;5095987;28;20048;-78
2022/01/25 07:44:04;;;;;;;77.57;40.33;;;3.90;92.70;;;;;;5112796;28;20318;-78
2022/01/25 07:46:30;;;;;;;79.68;40.17;;;3.90;92.70;;;;;;5112762;28;20217;-78
2022/01/25 07:48:57;;;;;;;72.97;38.33;;;3.90;92.80;;;;;;5112783;28;20050;-78
2022/01/25 07:51:26;;;;;;;77.82;39.85;;;3.90;92.80;;;;;;5112441;28;20096;-78
2022/01/25 07:53:52;;;;;;;75.68;39.53;;;3.90;93.20;;;;;;5112630;28;20079;-78
2022/01/25 07:56:18;;;;;;;78.00;40.72;;;3.90;93.10;;;;;;5112789;28;20391;-78
2022/01/25 07:58:44;;;;;;;67.85;36.13;;;3.90;93.10;;;;;;5112558;28;20040;-78
2022/01/25 08:01:09;;;;;;;76.40;40.45;;;3.90;93.10;;;;;;5095307;28;20429;-78
2022/01/25 08:03:36;;;;;;;78.68;41.67;;;3.90;92.80;;;;;;5095217;28;20040;-78
2022/01/25 08:06:02;;;;;;;83.05;40.72;;;3.90;92.90;;;;;;5094895;28;20062;-78
2022/01/25 08:08:28;;;;;;;72.72;39.35;;;3.90;92.90;;;;;;5094912;28;20391;-78
2022/01/25 08:10:54;;;;;;;77.00;39.08;;;4.00;92.90;;;;;;5094878;28;20031;-78
2022/01/25 08:13:19;;;;;;;67.07;36.65;;;4.00;92.70;;;;;;5112227;28;20046;-78
2022/01/25 08:15:45;;;;;;;82.05;39.38;;;4.00;92.70;;;;;;5095389;28;20053;-78
2022/01/25 08:18:11;;;;;;;79.15;39.70;;;4.00;92.70;;;;;;5094818;28;20042;-78
2022/01/25 08:20:37;;;;;;;76.80;38.28;;;4.00;92.70;;;;;;5112370;28;20043;-78
2022/01/25 08:23:03;;;;;;;77.38;39.42;;;4.00;93.00;;;;;;5095311;28;20044;-78
2022/01/25 08:25:28;;;;;;;78.60;40.00;;;4.00;93.00;;;;;;5095214;28;20038;-78
2022/01/25 08:27:55;;;;;;;75.63;39.47;;;4.00;92.70;;;;;;5095532;28;20035;-78
2022/01/25 08:30:21;;;;;;;70.32;38.97;;;4.00;92.90;;;;;;5095400;28;20040;-78
2022/01/25 08:32:47;;;;;;;76.55;39.15;;;4.00;92.90;;;;;;5112136;28;20044;-78
2022/01/25 08:35:12;;;;;;;76.68;40.58;;;4.00;92.80;;;;;;5112089;28;20047;-78
2022/01/25 08:37:39;;;;;;;74.95;39.08;;;4.00;93.00;;;;;;5095304;28;20039;-78
2022/01/25 08:40:07;;;;;;;76.43;40.28;;;4.00;92.90;;;;;;5112254;28;20057;-79
2022/01/25 08:42:34;;;;;;;77.88;42.55;;;4.00;93.10;;;;;;5111993;28;20124;-78
2022/01/25 08:45:00;;;;;;;77.65;40.40;;;4.00;92.90;;;;;;5095327;28;20028;-79
2022/01/25 08:47:26;;;;;;;76.70;38.88;;;4.00;92.90;;;;;;5095244;28;20433;-79
2022/01/25 08:49:51;;;;;;;78.47;39.90;;;4.00;93.00;;;;;;5095375;28;20089;-78
2022/01/25 08:52:17;;;;;;;84.10;41.70;;;3.90;93.00;;;;;;5112727;28;20036;-78
2022/01/25 08:54:43;;;;;;;83.82;42.22;;;3.90;93.10;;;;;;5095029;28;20086;-78
2022/01/25 08:57:09;;;;;;;78.82;40.38;;;4.00;93.00;;;;;;5094967;28;20044;-79
2022/01/25 08:59:35;;;;;;;75.60;39.40;;;4.00;92.90;;;;;;5095088;28;20044;-78
2022/01/25 09:02:01;;;;;;;77.53;41.08;;;4.00;92.80;;;;;;5111929;28;20035;-79
2022/01/25 09:04:27;;;;;;;72.15;38.17;;;4.00;92.80;;;;;;5094477;28;20134;-78
2022/01/25 09:06:53;;;;;;;72.10;38.05;;;4.00;92.70;;;;;;5111829;28;20044;-78
2022/01/25 09:09:20;;;;;;;75.80;39.28;;;4.00;92.80;;;;;;5111646;28;20036;-78
2022/01/25 09:11:45;;;;;;;76.35;38.70;;;4.00;92.90;;;;;;5111978;28;20380;-78
2022/01/25 09:14:11;;;;;;;75.97;38.72;;;4.00;92.90;;;;;;5111730;28;20035;-79
2022/01/25 09:16:38;;;;;;;77.85;39.80;;;4.00;92.80;;;;;;5078062;28;20048;-78
2022/01/25 09:19:05;;;;;;;83.40;38.95;;;4.00;92.80;;;;;;5111977;28;20369;-78
2022/01/25 09:21:30;;;;;;;76.53;39.08;;;4.00;92.80;;;;;;5094739;28;20035;-78
2022/01/25 09:23:56;;;;;;;70.18;38.05;;;4.00;92.70;;;;;;5111468;28;20106;-78
2022/01/25 09:26:23;;;;;;;75.22;39.78;;;4.00;92.70;;;;;;5094597;28;20035;-78
2022/01/25 09:28:51;;;;;;;75.38;38.30;;;4.00;92.70;;;;;;5113232;28;20096;-78
2022/01/25 09:31:17;;;;;;;81.18;40.05;;;4.00;92.70;;;;;;5081942;28;20075;-78
2022/01/25 09:33:43;;;;;;;74.88;37.85;;;4.00;92.70;;;;;;5115735;28;20401;-78
2022/01/25 09:36:33;;;;;;;71.93;38.05;;;4.00;92.80;;;;;;5098265;28;20126;-79
2022/01/25 09:38:59;;;;;;;78.53;39.60;;;4.00;92.60;;;;;;5115430;28;20044;-78
2022/01/25 09:41:25;;;;;;;74.20;36.97;;;4.00;92.80;;;;;;5115513;28;20104;-78
2022/01/25 09:43:51;;;;;;;76.97;42.63;;;4.00;92.80;;;;;;5098164;28;20043;-78
2022/01/25 09:46:17;;;;;;;72.60;37.03;;;4.00;92.70;;;;;;5115156;28;20057;-78
2022/01/25 09:48:43;;;;;;;78.10;38.60;;;4.00;92.70;;;;;;5098264;28;20032;-78
2022/01/25 09:51:10;;;;;;;74.55;40.70;;;4.10;92.60;;;;;;5097564;28;20066;-78
2022/01/25 09:53:37;;;;;;;73.88;40.28;;;4.10;92.50;;;;;;5098018;28;20096;-78
2022/01/25 09:56:03;;;;;;;71.93;37.92;;;4.00;92.80;;;;;;5115206;28;20050;-78
2022/01/25 09:58:29;;;;;;;75.07;40.05;;;4.10;92.60;;;;;;5114990;28;20043;-78
2022/01/25 10:01:00;;;;;;;79.78;40.35;;;4.10;92.60;;;;;;5098021;28;20066;-78
2022/01/25 10:03:31;;;;;;;80.65;39.67;;;4.00;93.10;;;;;;5114905;28;20122;-78
2022/01/25 10:06:00;;;;;;;77.43;41.90;;;4.00;92.70;;;;;;5098545;28;20080;-78
2022/01/25 10:08:32;;;;;;;79.90;40.53;;;4.10;93.10;;;;;;5114853;28;20380;-78
2022/01/25 10:11:01;;;;;;;76.18;40.20;;;4.00;93.30;;;;;;5116047;28;20399;-78
2022/01/25 10:13:41;;;;;;;82.82;41.03;;;4.10;92.90;;;;;;5115273;28;20043;-80
2022/01/25 10:16:18;;;;;;;79.57;40.13;;;4.10;93.00;;;;;;5097590;28;20128;-78
2022/01/25 10:18:46;;;;;;;80.53;40.38;;;4.10;93.00;;;;;;5114908;28;20493;-78
2022/01/25 10:21:20;;;;;;;80.53;39.90;;;4.10;93.00;;;;;;5114532;28;20035;-78
2022/01/25 10:24:18;;;;;;;81.57;41.88;;;4.10;93.10;;;;;;5097474;28;20036;-78
2022/01/25 10:26:53;;;;;;;82.57;40.15;;;4.10;93.20;;;;;;5114747;28;20387;-78
2022/01/25 10:29:26;;;;;;;80.75;42.13;;;4.10;93.10;;;;;;5097504;28;20543;-78
2022/01/25 10:31:56;;;;;;;78.90;41.10;;;4.10;93.10;;;;;;5114378;28;20047;-78
2022/01/25 10:34:49;;;;;;;83.88;42.65;;;4.10;92.90;;;;;;5097303;28;20048;-78
2022/01/25 10:37:23;;;;;;;89.57;42.97;;;4.10;92.90;;;;;;5110284;28;20059;-78
2022/01/25 10:39:52;;;;;;;87.90;41.67;;;4.10;93.20;;;;;;5096483;28;20047;-78
2022/01/25 10:42:26;;;;;;;85.68;42.03;;;4.10;93.10;;;;;;5114436;28;20039;-78
2022/01/25 10:45:16;;;;;;;85.93;43.35;;;4.10;93.00;;;;;;5113990;28;20035;-78
2022/01/25 10:47:42;;;;;;;80.80;43.00;;;4.20;93.00;;;;;;5081219;28;20070;-78
2022/01/25 10:50:13;;;;;;;90.57;45.38;;;4.20;93.00;;;;;;5097316;28;20097;-78
2022/01/25 10:52:38;;;;;;;85.53;42.90;;;4.10;93.30;;;;;;5113980;28;20487;-78
2022/01/25 10:55:05;;;;;;;85.13;42.28;;;4.10;93.20;;;;;;5113720;28;20071;-78
2022/01/25 10:57:31;;;;;;;85.32;42.80;;;4.10;93.10;;;;;;5096816;28;20040;-78
2022/01/25 10:59:59;;;;;;;76.43;40.08;;;4.10;93.30;;;;;;5096819;28;20039;-78
2022/01/25 11:02:26;;;;;;;81.00;41.55;;;4.10;93.30;;;;;;5113784;28;20046;-78
2022/01/25 11:05:07;;;;;;;78.85;40.58;;;4.10;93.50;;;;;;5113223;28;20148;-78
2022/01/25 11:07:44;;;;;;;81.40;40.58;;;4.20;93.20;;;;;;5113677;28;20039;-79
2022/01/25 11:10:15;;;;;;;86.65;43.92;;;4.20;93.10;;;;;;5096911;28;20039;-78
2022/01/25 11:12:48;;;;;;;76.20;38.45;;;4.10;93.10;;;;;;5113373;28;20039;-78
2022/01/25 11:15:13;;;;;;;76.07;39.60;;;4.10;93.10;;;;;;5097672;28;20043;-78
2022/01/25 11:17:40;;;;;;;85.22;41.80;;;4.10;93.10;;;;;;5079651;28;20519;-78
2022/01/25 11:20:07;;;;;;;79.15;41.55;;;4.20;93.10;;;;;;5096679;28;20391;-78
2022/01/25 11:22:33;;;;;;;84.53;40.85;;;4.20;92.90;;;;;;5113391;28;20430;-78
2022/01/25 11:25:05;;;;;;;78.00;40.28;;;4.10;92.90;;;;;;5095982;28;20383;-79
2022/01/25 11:27:32;;;;;;;79.03;40.55;;;4.20;92.90;;;;;;5113294;28;20043;-78
2022/01/25 11:30:08;;;;;;;81.75;39.67;;;4.10;92.60;;;;;;5096357;28;20047;-78
2022/01/25 11:32:46;;;;;;;79.82;37.92;;;4.10;92.80;;;;;;5113166;28;20072;-78
2022/01/25 11:35:15;;;;;;;77.25;38.40;;;4.10;92.80;;;;;;5096322;28;20092;-78
2022/01/25 11:37:47;;;;;;;81.85;40.13;;;4.10;92.70;;;;;;5113075;28;20071;-78
2022/01/25 11:40:23;;;;;;;83.75;41.28;;;4.10;92.70;;;;;;5113108;28;20036;-78
2022/01/25 11:42:52;;;;;;;79.55;39.88;;;4.10;92.60;;;;;;5112841;28;20035;-78
2022/01/25 11:45:27;;;;;;;81.75;41.72;;;4.20;92.60;;;;;;5112840;28;20051;-78
2022/01/25 11:47:54;;;;;;;78.90;41.28;;;4.20;92.60;;;;;;5096163;28;20100;-78
2022/01/25 11:50:24;;;;;;;78.40;40.00;;;4.20;92.30;;;;;;5095771;28;20074;-78
2022/01/25 11:52:53;;;;;;;81.85;41.40;;;4.10;92.40;;;;;;5096377;28;20036;-78
2022/01/25 11:55:31;;;;;;;86.90;42.80;;;4.10;92.40;;;;;;5095726;28;20043;-78
2022/01/25 11:57:58;;;;;;;77.18;39.15;;;4.20;92.40;;;;;;5112552;28;20035;-78
2022/01/25 12:00:36;;;;;;;81.88;42.05;;;4.20;92.40;;;;;;5095411;28;20065;-79
2022/01/25 12:03:17;;;;;;;77.28;38.80;;;4.20;92.20;;;;;;5112757;28;20035;-78
2022/01/25 12:06:07;;;;;;;78.15;40.55;;;4.20;92.50;;;;;;5112246;28;20044;-78
2022/01/25 12:08:52;;;;;;;82.55;41.60;;;4.20;92.40;;;;;;5112537;28;20058;-79
2022/01/25 12:11:30;;;;;;;;;;;4.20;92.50;;;;;;5112735;28;20506;-79
2022/01/25 12:14:18;;;;;;;79.97;40.15;;;4.20;92.70;;;;;;5112558;28;20310;-79
2022/01/25 12:17:04;;;;;;;83.50;42.15;;;4.20;92.50;;;;;;5112424;28;20039;-79
2022/01/25 12:19:50;;;;;;;77.80;40.67;;;4.20;92.50;;;;;;5094556;28;20057;-79
2022/01/25 12:22:26;;;;;;;82.07;41.28;;;4.20;92.50;;;;;;5095442;28;20100;-78
2022/01/25 12:25:07;;;;;;;83.97;41.60;;;4.30;92.50;;;;;;5112210;28;20051;-79
2022/01/25 12:27:39;;;;;;;83.07;40.53;;;4.20;92.50;;;;;;5112222;28;20491;-79
2022/01/25 12:30:16;;;;;;;74.93;39.55;;;4.20;92.60;;;;;;5111770;28;20047;-79
2022/01/25 12:32:50;;;;;;;77.07;38.35;;;4.20;92.40;;;;;;5112522;28;20031;-79
2022/01/25 12:35:30;;;;;;;77.05;38.58;;;4.20;92.30;;;;;;5112442;28;20032;-79
2022/01/25 12:37:58;;;;;;;79.40;41.33;;;4.20;92.40;;;;;;5112158;28;20132;-79
2022/01/25 12:40:26;;;;;;;76.97;39.70;;;4.10;92.60;;;;;;5078857;28;20046;-79
2022/01/25 12:42:53;;;;;;;83.60;41.95;;;4.20;92.60;;;;;;5112304;28;20043;-79
2022/01/25 12:45:20;;;;;;;79.25;39.95;;;4.10;92.70;;;;;;5111863;28;20042;-79
2022/01/25 12:47:57;;;;;;;84.60;42.50;;;4.10;92.70;;;;;;5112012;28;20127;-79
2022/01/25 12:50:23;;;;;;;78.55;40.78;;;4.10;92.70;;;;;;5095678;28;20043;-78
2022/01/25 12:52:49;;;;;;;84.78;40.67;;;4.10;92.60;;;;;;5112082;28;20039;-78
2022/01/25 12:55:21;;;;;;;82.80;41.70;;;4.20;92.60;;;;;;5078137;28;20040;-78
2022/01/25 12:57:50;;;;;;;80.95;39.40;;;4.20;92.50;;;;;;5112313;28;20079;-78
2022/01/25 13:00:16;;;;;;;74.53;38.47;;;4.20;92.50;;;;;;5111725;28;20502;-79
2022/01/25 13:02:42;;;;;;;82.65;42.25;;;4.10;92.30;;;;;;5095001;28;20360;-78
2022/01/25 13:05:20;;;;;;;85.00;41.28;;;4.10;92.30;;;;;;5116011;28;20150;-78
2022/01/25 13:07:47;;;;;;;82.35;39.70;;;4.10;92.50;;;;;;5116018;28;20050;-79
2022/01/25 13:10:29;;;;;;;77.38;40.72;;;4.20;92.50;;;;;;5115954;28;20040;-78
2022/01/25 13:12:58;;;;;;;86.93;42.47;;;4.10;92.40;;;;;;5115869;28;20047;-78
2022/01/25 13:18:14;;;;;;;82.68;40.72;;;4.20;92.30;;;;;;5116141;28;20102;-79
2022/01/25 13:20:43;;;;;;;88.78;44.08;;;4.10;92.30;;;;;;5115723;28;20050;-79
2022/01/25 13:23:11;;;;;;;80.28;39.35;;;4.10;92.40;;;;;;5115611;28;20035;-79
2022/01/25 13:26:05;;;;;;;85.20;44.40;;;4.10;92.40;;;;;;5115430;28;20082;-79
2022/01/25 13:30:38;;;;;;;88.07;42.22;;;4.10;92.30;;;;;;5098920;28;20039;-79
2022/01/25 13:31:24;;;;;;;84.53;41.00;;;4.10;92.40;;;;;;5112295;28;20526;-80
2022/01/25 13:33:50;;;;;;;85.88;40.55;;;4.10;92.40;;;;;;5115269;28;20056;-79
2022/01/25 13:36:20;;;;;;;90.82;41.53;;;4.10;92.40;;;;;;5115210;28;20050;-80
2022/01/25 13:38:49;;;;;;;83.97;41.72;;;4.10;92.50;;;;;;5098420;28;20077;-79
2022/01/25 13:41:22;;;;;;;84.93;42.95;;;4.10;92.50;;;;;;5098698;28;20051;-79
2022/01/25 13:46:42;;;;;;;84.43;41.80;;;4.10;92.50;;;;;;5115593;28;20031;-78
2022/01/25 13:49:12;;;;;;;92.00;41.63;;;4.10;92.50;;;;;;5115040;28;20479;-78
2022/01/25 13:51:48;;;;;;;89.05;42.95;;;4.10;92.70;;;;;;5098002;28;20126;-80
2022/01/25 13:54:21;;;;;;;80.20;40.05;;;4.00;92.70;;;;;;5098327;28;20031;-79
2022/01/25 13:56:46;;;;;;;85.70;41.78;;;4.10;92.70;;;;;;5115041;28;20521;-79
2022/01/25 13:59:12;;;;;;;87.63;43.50;;;4.10;92.50;;;;;;5097650;28;20043;-79
2022/01/25 14:01:40;;;;;;;84.55;40.17;;;4.10;92.50;;;;;;5115464;28;20035;-79
2022/01/25 14:04:17;;;;;;;86.90;42.20;;;4.10;92.50;;;;;;5114961;27;20082;-79
2022/01/25 14:06:49;;;;;;;86.20;40.25;;;4.00;92.60;;;;;;5101562;27;20159;-79
2022/01/25 14:09:33;;;;;;;85.88;42.22;;;4.00;92.70;;;;;;5118500;27;20031;-78
2022/01/25 14:23:26;;;;;;;93.03;41.58;;;4.10;92.80;;;;;;5117930;27;20137;-78
2022/01/25 14:26:05;;;;;;;92.30;42.97;;;4.10;92.70;;;;;;5101149;27;20055;-78
2022/01/25 14:28:38;;;;;;;86.30;40.58;;;4.10;92.80;;;;;;5117911;27;20403;-78
2022/01/25 14:31:03;;;;;;;86.85;43.92;;;4.10;92.70;;;;;;5101968;27;20104;-78
2022/01/25 14:33:34;;;;;;;88.50;42.00;;;4.00;92.70;;;;;;5100960;27;20074;-79
2022/01/25 14:36:06;;;;;;;91.07;44.22;;;4.00;92.80;;;;;;5117937;27;20457;-78
2022/01/25 14:38:37;;;;;;;92.05;42.80;;;4.00;93.10;;;;;;5117634;27;20049;-78
2022/01/25 14:41:18;;;;;;;87.15;41.08;;;4.00;92.90;;;;;;5100317;27;20050;-78
2022/01/25 14:43:50;;;;;;;92.82;42.45;;;4.00;92.90;;;;;;5083832;27;20117;-78
2022/01/25 14:46:31;;;;;;;91.00;42.45;;;4.00;92.70;;;;;;5117335;27;20039;-79
2022/01/25 14:49:06;;;;;;;89.40;42.55;;;3.90;92.80;;;;;;5117455;27;20119;-78
2022/01/25 14:51:42;;;;;;;94.38;43.13;;;3.90;92.90;;;;;;5117665;27;20051;-78
2022/01/25 14:54:10;;;;;;;94.10;41.85;;;3.90;92.90;;;;;;5117512;27;20039;-78
2022/01/25 14:56:38;;;;;;;98.57;43.47;;;3.90;92.90;;;;;;5117163;27;20039;-78
2022/01/25 15:01:33;;;;;;;90.10;40.83;;;3.80;93.20;;;;;;5117503;27;20047;-79